createdAt,value
2023-04-21T00:01:26.225Z,2.95
2023-04-21T00:03:56.398Z,2.70
2023-04-21T00:06:23.478Z,2.58
2023-04-21T00:08:50.913Z,2.28
2023-04-21T00:11:18.007Z,2.70
2023-04-21T00:13:44.854Z,3.10
2023-04-21T00:16:11.676Z,2.75
2023-04-21T00:18:38.480Z,2.83
2023-04-21T00:21:05.608Z,3.20
2023-04-21T00:23:32.392Z,3.47
2023-04-21T00:26:02.598Z,2.53
2023-04-21T00:28:29.624Z,3.47
2023-04-21T00:30:57.722Z,2.30
2023-04-21T00:33:25.870Z,2.35
2023-04-21T00:35:54.560Z,3.05
2023-04-21T00:38:21.567Z,2.67
2023-04-21T00:40:48.326Z,2.47
2023-04-21T00:43:15.304Z,2.17
2023-04-21T00:45:41.951Z,2.65
2023-04-21T00:48:08.779Z,2.33
2023-04-21T00:50:35.532Z,2.38
2023-04-21T00:53:02.485Z,1.98
2023-04-21T00:55:31.637Z,2.40
2023-04-21T00:57:58.514Z,2.75
2023-04-21T01:00:28.002Z,3.08
2023-04-21T01:02:55.413Z,2.00
2023-04-21T01:05:22.890Z,2.45
2023-04-21T01:07:50.312Z,2.78
2023-04-21T01:10:17.662Z,2.90
2023-04-21T01:12:47.238Z,3.42
2023-04-21T01:15:16.043Z,2.13
2023-04-21T01:17:43.334Z,2.63
2023-04-21T01:20:13.435Z,2.33
2023-04-21T01:22:42.248Z,2.50
2023-04-21T01:25:09.982Z,3.22
2023-04-21T01:27:37.168Z,2.05
2023-04-21T01:30:05.608Z,2.30
2023-04-21T01:32:32.575Z,2.53
2023-04-21T01:35:00.333Z,2.53
2023-04-21T01:37:32.565Z,2.63
2023-04-21T01:40:01.700Z,2.90
2023-04-21T01:42:29.330Z,2.55
2023-04-21T01:44:58.858Z,2.45
2023-04-21T01:47:25.578Z,2.58
2023-04-21T01:49:53.150Z,2.50
2023-04-21T01:52:19.937Z,2.92
2023-04-21T01:54:46.715Z,2.65
2023-04-21T01:57:14.706Z,2.42
2023-04-21T01:59:41.684Z,2.47
2023-04-21T02:02:08.630Z,2.70
2023-04-21T02:04:36.343Z,2.50
2023-04-21T02:07:03.315Z,2.63
2023-04-21T02:09:30.142Z,2.33
2023-04-21T02:12:00.506Z,2.60
2023-04-21T02:14:27.715Z,2.33
2023-04-21T02:16:56.177Z,2.63
2023-04-21T02:19:24.005Z,2.67
2023-04-21T02:21:50.929Z,2.58
2023-04-21T02:24:20.023Z,3.08
2023-04-21T02:26:46.686Z,3.13
2023-04-21T02:29:13.745Z,3.35
2023-04-21T02:31:54.356Z,2.40
2023-04-21T02:34:24.410Z,2.30
2023-04-21T02:36:51.154Z,2.75
2023-04-21T02:39:19.632Z,2.50
2023-04-21T02:41:46.558Z,3.40
2023-04-21T02:44:13.259Z,3.17
2023-04-21T02:46:41.202Z,3.28
2023-04-21T02:49:08.214Z,2.30
2023-04-21T02:51:35.519Z,2.97
2023-04-21T02:54:02.245Z,2.80
2023-04-21T02:56:29.221Z,2.20
2023-04-21T02:58:55.978Z,3.38
2023-04-21T03:01:22.819Z,3.33
2023-04-21T03:03:49.605Z,3.50
2023-04-21T03:06:16.310Z,3.10
2023-04-21T03:08:43.157Z,3.88
2023-04-21T03:11:09.831Z,3.78
2023-04-21T03:13:37.021Z,3.97
2023-04-21T03:16:08.277Z,3.67
2023-04-21T03:18:39.489Z,3.33
2023-04-21T03:21:06.248Z,3.42
2023-04-21T03:23:35.329Z,3.08
2023-04-21T03:26:07.206Z,3.55
2023-04-21T03:28:35.064Z,2.90
2023-04-21T03:31:02.866Z,3.05
2023-04-21T03:33:29.829Z,2.97
2023-04-21T03:35:56.598Z,3.60
2023-04-21T03:38:23.434Z,3.17
2023-04-21T03:40:50.695Z,3.13
2023-04-21T03:43:17.446Z,2.67
2023-04-21T03:45:44.618Z,3.58
2023-04-21T03:48:11.445Z,3.00
2023-04-21T03:50:38.687Z,3.40
2023-04-21T03:53:05.341Z,4.45
2023-04-21T03:55:31.959Z,3.50
2023-04-21T03:57:58.782Z,3.50
2023-04-21T04:00:25.697Z,3.80
2023-04-21T04:02:52.512Z,4.18
2023-04-21T04:05:19.302Z,4.20
2023-04-21T04:07:46.157Z,3.95
2023-04-21T04:10:12.983Z,3.67
2023-04-21T04:12:39.706Z,3.95
2023-04-21T04:15:07.684Z,3.40
2023-04-21T04:17:34.655Z,3.38
2023-04-21T04:20:01.910Z,3.90
2023-04-21T04:22:28.708Z,5.07
2023-04-21T04:24:55.671Z,3.30
2023-04-21T04:27:22.418Z,3.88
2023-04-21T04:29:49.415Z,4.22
2023-04-21T04:32:16.106Z,3.60
2023-04-21T04:34:43.095Z,3.45
2023-04-21T04:37:11.101Z,3.15
2023-04-21T04:39:37.843Z,3.35
2023-04-21T04:42:09.168Z,3.78
2023-04-21T04:44:36.383Z,3.45
2023-04-21T04:47:06.340Z,3.05
2023-04-21T04:49:33.263Z,3.20
2023-04-21T04:52:00.182Z,3.83
2023-04-21T04:54:29.072Z,3.67
2023-04-21T04:56:56.854Z,3.85
2023-04-21T04:59:23.554Z,3.45
2023-04-21T05:01:50.381Z,3.45
2023-04-21T05:04:17.808Z,3.00
2023-04-21T05:06:45.018Z,3.13
2023-04-21T05:09:12.472Z,4.15
2023-04-21T05:11:39.102Z,3.80
2023-04-21T05:14:06.005Z,3.85
2023-04-21T05:16:34.441Z,3.83
2023-04-21T05:19:02.315Z,3.20
2023-04-21T05:21:29.093Z,4.07
2023-04-21T05:23:56.660Z,3.22
2023-04-21T05:26:24.223Z,4.57
2023-04-21T05:31:41.132Z,3.10
2023-04-21T05:34:07.924Z,2.72
2023-04-21T05:36:34.917Z,3.17
2023-04-21T05:39:01.561Z,4.05
2023-04-21T05:41:28.309Z,3.08
2023-04-21T05:43:56.437Z,2.60
2023-04-21T05:46:23.123Z,3.55
2023-04-21T05:48:49.893Z,2.97
2023-04-21T05:51:40.758Z,2.85
2023-04-21T05:54:10.477Z,3.17
2023-04-21T05:56:59.617Z,3.17
2023-04-21T05:59:28.566Z,3.15
2023-04-21T06:01:57.695Z,3.15
2023-04-21T06:04:25.078Z,3.28
2023-04-21T06:07:06.375Z,3.03
2023-04-21T06:09:36.813Z,3.10
2023-04-21T06:12:04.929Z,2.97
2023-04-21T06:14:31.828Z,3.08
2023-04-21T06:16:58.917Z,3.50
2023-04-21T06:19:25.778Z,2.03
2023-04-21T06:21:52.829Z,3.35
2023-04-21T06:24:25.252Z,2.55
2023-04-21T06:26:53.461Z,2.92
2023-04-21T06:29:21.021Z,2.88
2023-04-21T06:31:48.148Z,3.22
2023-04-21T06:34:15.025Z,2.80
2023-04-21T06:36:41.794Z,3.13
2023-04-21T06:39:08.683Z,2.65
2023-04-21T06:41:35.498Z,2.63
2023-04-21T06:44:02.354Z,2.47
2023-04-21T06:46:29.344Z,2.67
2023-04-21T06:48:56.009Z,3.65
2023-04-21T06:51:22.761Z,3.53
2023-04-21T06:53:50.042Z,2.53
2023-04-21T06:56:16.732Z,1.98
2023-04-21T06:58:43.591Z,3.00
2023-04-21T07:01:10.405Z,2.70
2023-04-21T07:03:37.375Z,2.80
2023-04-21T07:06:04.452Z,3.10
2023-04-21T07:08:31.173Z,3.42
2023-04-21T07:10:57.855Z,2.72
2023-04-21T07:13:24.677Z,2.25
2023-04-21T07:15:52.010Z,2.75
2023-04-21T07:18:18.787Z,2.63
2023-04-21T07:20:45.746Z,3.58
2023-04-21T07:23:12.517Z,2.30
2023-04-21T07:25:39.177Z,2.53
2023-04-21T07:28:05.971Z,2.20
2023-04-21T07:30:32.717Z,2.20
2023-04-21T07:32:59.493Z,3.08
2023-04-21T07:35:26.230Z,3.20
2023-04-21T07:37:52.980Z,3.00
2023-04-21T07:40:19.929Z,2.92
2023-04-21T07:42:46.609Z,2.38
2023-04-21T07:45:13.376Z,2.83
2023-04-21T07:47:40.184Z,2.30
2023-04-21T07:50:07.784Z,2.90
2023-04-21T07:52:34.557Z,2.80
2023-04-21T07:55:01.317Z,4.43
2023-04-21T07:57:28.007Z,3.00
2023-04-21T07:59:54.974Z,2.70
2023-04-21T08:02:21.727Z,2.20
2023-04-21T08:04:48.569Z,2.75
2023-04-21T08:07:16.013Z,2.28
2023-04-21T08:09:46.814Z,2.38
2023-04-21T08:12:15.850Z,2.63
2023-04-21T08:14:42.739Z,2.83
2023-04-21T08:17:11.828Z,2.25
2023-04-21T08:19:38.623Z,2.90
2023-04-21T08:22:05.636Z,2.00
2023-04-21T08:24:35.698Z,2.13
2023-04-21T08:27:02.534Z,2.60
2023-04-21T08:29:29.377Z,2.17
2023-04-21T08:31:57.456Z,2.60
2023-04-21T08:34:26.563Z,2.60
2023-04-21T08:36:54.355Z,2.20
2023-04-21T08:39:23.697Z,2.85
2023-04-21T08:41:53.069Z,1.98
2023-04-21T08:44:23.560Z,2.00
2023-04-21T08:46:51.480Z,2.35
2023-04-21T08:49:24.475Z,2.45
2023-04-21T08:51:54.225Z,2.45
2023-04-21T08:54:24.756Z,2.60
2023-04-21T08:57:01.356Z,2.53
2023-04-21T08:59:35.856Z,2.63
2023-04-21T09:02:15.137Z,2.10
2023-04-21T09:04:44.141Z,2.17
2023-04-21T09:07:12.011Z,2.40
2023-04-21T09:09:55.839Z,2.38
2023-04-21T09:12:25.133Z,2.50
2023-04-21T09:14:52.005Z,2.33
2023-04-21T09:17:22.722Z,2.47
2023-04-21T09:19:49.651Z,2.30
2023-04-21T09:22:19.230Z,1.67
2023-04-21T09:24:50.757Z,1.95
2023-04-21T09:27:23.745Z,2.17
2023-04-21T09:29:50.892Z,2.00
2023-04-21T09:32:22.602Z,2.42
2023-04-21T09:34:54.522Z,2.22
2023-04-21T09:37:24.688Z,1.80
2023-04-21T09:40:04.210Z,2.88
2023-04-21T09:42:38.874Z,1.90
2023-04-21T09:47:50.936Z,2.08
2023-04-21T09:50:51.199Z,2.20
2023-04-21T09:53:20.708Z,1.92
2023-04-21T09:55:51.802Z,2.20
2023-04-21T09:58:22.719Z,2.05
2023-04-21T10:00:52.934Z,1.90
2023-04-21T10:03:27.438Z,2.17
2023-04-21T10:05:55.285Z,2.35
2023-04-21T10:08:22.734Z,1.90
2023-04-21T10:10:55.733Z,2.20
2023-04-21T10:13:27.975Z,2.10
2023-04-21T10:16:08.067Z,2.38
2023-04-21T10:18:42.986Z,2.55
2023-04-21T10:21:21.806Z,2.63
2023-04-21T10:23:52.524Z,2.78
2023-04-21T10:26:23.398Z,2.33
2023-04-21T10:29:17.557Z,2.05
2023-04-21T10:31:44.286Z,2.85
2023-04-21T10:34:17.455Z,2.47
2023-04-21T10:36:49.160Z,2.63
2023-04-21T10:39:31.544Z,2.13
2023-04-21T10:42:23.322Z,2.20
2023-04-21T10:44:59.184Z,2.15
2023-04-21T10:47:51.356Z,2.28
2023-04-21T10:50:20.351Z,1.98
2023-04-21T10:52:53.587Z,2.03
2023-04-21T10:55:27.120Z,2.40
2023-04-21T10:57:54.158Z,1.98
2023-04-21T11:00:25.535Z,2.35
2023-04-21T11:03:03.170Z,2.40
2023-04-21T11:05:31.003Z,2.13
2023-04-21T11:08:04.782Z,2.42
2023-04-21T11:10:42.599Z,3.00
2023-04-21T11:13:09.528Z,2.88
2023-04-21T11:15:45.798Z,2.42
2023-04-21T11:18:15.060Z,3.13
2023-04-21T11:20:46.199Z,2.60
2023-04-21T11:23:21.048Z,3.17
2023-04-21T11:25:50.841Z,2.85
2023-04-21T11:28:22.398Z,2.50
2023-04-21T11:30:49.236Z,2.90
2023-04-21T11:33:16.346Z,2.85
2023-04-21T11:35:43.633Z,2.90
2023-04-21T11:38:12.652Z,2.53
2023-04-21T11:40:49.381Z,2.53
2023-04-21T11:43:16.188Z,2.75
2023-04-21T11:45:43.253Z,3.60
2023-04-21T11:48:17.577Z,2.28
2023-04-21T11:50:48.855Z,2.70
2023-04-21T11:53:16.449Z,2.70
2023-04-21T11:55:44.398Z,2.50
2023-04-21T11:58:12.354Z,2.70
2023-04-21T12:00:39.260Z,2.50
2023-04-21T12:03:11.037Z,2.80
2023-04-21T12:05:37.937Z,2.67
2023-04-21T12:08:06.347Z,2.65
2023-04-21T12:10:33.092Z,3.08
2023-04-21T12:12:59.914Z,2.15
2023-04-21T12:15:30.046Z,2.78
2023-04-21T12:17:56.799Z,2.90
2023-04-21T12:20:25.291Z,3.08
2023-04-21T12:22:54.979Z,2.60
2023-04-21T12:25:21.655Z,3.63
2023-04-21T12:27:49.749Z,3.28
2023-04-21T12:30:18.147Z,2.03
2023-04-21T12:32:44.981Z,2.63
2023-04-21T12:35:36.890Z,2.50
2023-04-21T12:38:05.075Z,3.08
2023-04-21T12:40:33.665Z,2.90
2023-04-21T12:43:00.747Z,2.67
2023-04-21T12:45:27.704Z,2.95
2023-04-21T12:47:55.097Z,2.75
2023-04-21T12:50:21.955Z,2.60
2023-04-21T12:52:51.490Z,2.65
2023-04-21T12:55:20.738Z,2.15
2023-04-21T12:57:47.457Z,3.03
2023-04-21T13:00:15.042Z,2.83
2023-04-21T13:02:42.470Z,2.67
2023-04-21T13:05:10.695Z,2.75
2023-04-21T13:07:37.551Z,2.60
2023-04-21T13:10:06.701Z,3.13
2023-04-21T13:12:33.613Z,2.60
2023-04-21T13:15:00.324Z,3.85
2023-04-21T13:17:27.181Z,2.95
2023-04-21T13:19:57.253Z,2.45
2023-04-21T13:22:26.901Z,3.30
2023-04-21T13:24:53.569Z,3.05
2023-04-21T13:27:20.677Z,2.67
2023-04-21T13:29:49.182Z,2.67
2023-04-21T13:32:17.267Z,3.45
2023-04-21T13:34:44.308Z,2.65
2023-04-21T13:37:15.314Z,3.53
2023-04-21T13:39:42.275Z,2.97
2023-04-21T13:42:08.965Z,3.22
2023-04-21T13:44:35.668Z,2.42
2023-04-21T13:47:07.495Z,2.47
2023-04-21T13:49:35.733Z,2.65
2023-04-21T13:52:02.336Z,3.30
2023-04-21T13:54:29.194Z,3.42
2023-04-21T13:56:56.956Z,2.88
2023-04-21T13:59:23.578Z,2.95
2023-04-21T14:02:01.583Z,2.13
2023-04-21T14:04:37.941Z,3.10
2023-04-21T14:07:06.577Z,2.80
2023-04-21T14:09:33.304Z,2.90
2023-04-21T14:12:01.598Z,3.45
2023-04-21T14:14:38.390Z,2.95
2023-04-21T14:17:07.049Z,3.22
2023-04-21T14:19:34.984Z,3.20
2023-04-21T14:22:02.145Z,2.60
2023-04-21T14:24:30.092Z,2.60
2023-04-21T14:26:57.613Z,2.72
2023-04-21T14:29:24.341Z,2.83
2023-04-21T14:31:51.415Z,2.97
2023-04-21T14:34:18.103Z,2.30
2023-04-21T14:36:47.530Z,3.22
2023-04-21T14:39:14.251Z,3.00
2023-04-21T14:41:40.953Z,3.00
2023-04-21T14:44:10.192Z,3.17
2023-04-21T14:46:38.524Z,2.83
2023-04-21T14:49:05.914Z,3.17
2023-04-21T14:51:33.011Z,2.70
2023-04-21T14:54:00.023Z,3.35
2023-04-21T14:56:27.042Z,2.72
2023-04-21T14:58:53.842Z,3.15
2023-04-21T15:01:21.678Z,2.92
2023-04-21T15:03:50.158Z,2.97
2023-04-21T15:06:16.923Z,2.90
2023-04-21T15:08:43.674Z,2.75
2023-04-21T15:11:10.514Z,2.90
2023-04-21T15:13:37.767Z,2.97
2023-04-21T15:16:04.784Z,3.40
2023-04-21T15:18:31.464Z,3.38
2023-04-21T15:20:58.105Z,3.58
2023-04-21T15:23:26.741Z,3.50
2023-04-21T15:25:53.552Z,4.35
2023-04-21T15:28:21.732Z,4.45
2023-04-21T15:30:48.516Z,4.40
2023-04-21T15:33:17.202Z,3.53
2023-04-21T15:35:44.001Z,3.17
2023-04-21T15:38:10.701Z,4.15
2023-04-21T15:40:46.371Z,4.35
2023-04-21T15:43:20.282Z,4.00
2023-04-21T15:45:46.962Z,5.45
2023-04-21T15:48:17.534Z,3.95
2023-04-21T15:50:45.537Z,4.15
2023-04-21T15:53:12.253Z,4.07
2023-04-21T15:55:56.951Z,3.85
2023-04-21T15:58:27.251Z,3.85
2023-04-21T16:08:45.900Z,2.80
2023-04-21T16:11:12.919Z,4.18
2023-04-21T16:13:39.943Z,3.17
2023-04-21T16:16:07.101Z,2.63
2023-04-21T16:18:33.913Z,2.78
2023-04-21T16:21:01.163Z,3.65
2023-04-21T16:23:28.158Z,2.88
2023-04-21T16:25:55.103Z,2.90
2023-04-21T16:28:22.050Z,2.97
2023-04-21T16:30:51.961Z,2.88
2023-04-21T16:33:19.295Z,3.20
2023-04-21T16:35:46.348Z,2.75
2023-04-21T16:38:13.462Z,2.70
2023-04-21T16:40:40.381Z,2.53
2023-04-21T16:43:08.380Z,3.42
2023-04-21T16:45:35.664Z,3.25
2023-04-21T16:48:02.780Z,3.33
2023-04-21T16:50:29.974Z,3.03
2023-04-21T16:52:56.795Z,4.07
2023-04-21T16:55:23.526Z,4.47
2023-04-21T16:57:52.807Z,5.43
2023-04-21T17:00:20.091Z,4.45
2023-04-21T17:02:47.322Z,5.88
2023-04-21T17:05:15.810Z,4.82
2023-04-21T17:07:44.357Z,7.65
2023-04-21T17:10:11.248Z,6.68
2023-04-21T17:12:39.140Z,6.28
2023-04-21T17:15:07.527Z,8.02
2023-04-21T17:17:42.401Z,7.72
2023-04-21T17:20:11.424Z,6.13
2023-04-21T17:22:41.591Z,5.60
2023-04-21T17:25:09.479Z,4.70
2023-04-21T17:27:37.605Z,5.00
2023-04-21T17:30:05.849Z,5.88
2023-04-21T17:32:34.021Z,7.10
2023-04-21T17:35:01.510Z,6.72
2023-04-21T17:37:31.043Z,5.85
2023-04-21T17:40:00.375Z,5.30
2023-04-21T17:42:29.258Z,4.97
2023-04-21T17:44:58.782Z,5.35
2023-04-21T17:47:25.877Z,4.85
2023-04-21T17:49:52.869Z,3.92
2023-04-21T17:52:19.746Z,4.72
2023-04-21T17:54:46.576Z,5.05
2023-04-21T17:57:13.408Z,4.70
2023-04-21T17:59:40.820Z,4.68
2023-04-21T18:02:25.692Z,5.55
2023-04-21T18:04:52.691Z,5.67
2023-04-21T18:07:20.599Z,6.15
2023-04-21T18:09:48.939Z,5.00
2023-04-21T18:12:16.290Z,4.75
2023-04-21T18:14:45.533Z,4.30
2023-04-21T18:17:12.310Z,4.55
2023-04-21T18:19:41.556Z,3.90
2023-04-21T18:22:08.650Z,4.78
2023-04-21T18:24:38.193Z,4.50
2023-04-21T18:27:05.302Z,4.35
2023-04-21T18:29:37.775Z,4.22
2023-04-21T18:32:08.022Z,4.78
2023-04-21T18:34:41.729Z,4.75
2023-04-21T18:37:11.858Z,3.95
2023-04-21T18:39:40.164Z,3.78
2023-04-21T18:42:09.548Z,4.47
2023-04-21T18:44:39.360Z,4.18
2023-04-21T18:47:25.592Z,3.55
2023-04-21T18:50:04.257Z,3.78
2023-04-21T18:55:36.089Z,3.42
2023-04-21T18:58:09.520Z,3.65
2023-04-21T19:00:42.619Z,4.53
2023-04-21T19:03:15.200Z,4.25
2023-04-21T19:05:45.093Z,3.58
2023-04-21T19:08:27.029Z,4.10
2023-04-21T19:11:11.988Z,4.60
2023-04-21T19:13:53.511Z,5.10
2023-04-21T19:16:27.382Z,4.55
2023-04-21T19:19:04.063Z,3.83
2023-04-21T19:21:46.548Z,4.30
2023-04-21T19:24:16.460Z,4.75
2023-04-21T19:26:46.057Z,4.15
2023-04-21T19:29:15.020Z,5.18
2023-04-21T19:31:44.945Z,4.88
2023-04-21T19:34:15.025Z,4.47
2023-04-21T19:36:42.453Z,4.70
2023-04-21T19:39:09.375Z,5.70
2023-04-21T19:41:36.493Z,6.88
2023-04-21T19:44:04.117Z,6.38
2023-04-21T19:46:32.113Z,6.18
2023-04-21T19:48:58.896Z,7.50
2023-04-21T19:51:25.759Z,8.13
2023-04-21T19:54:03.188Z,7.80
2023-04-21T19:56:38.179Z,7.50
2023-04-21T19:59:05.651Z,6.65
2023-04-21T20:01:33.429Z,7.25
2023-04-21T20:04:03.759Z,6.70
2023-04-21T20:06:38.084Z,6.18
2023-04-21T20:09:06.034Z,6.07
2023-04-21T20:11:36.388Z,6.65
2023-04-21T20:14:04.302Z,6.45
2023-04-21T20:16:32.951Z,7.40
2023-04-21T20:19:02.606Z,6.68
2023-04-21T20:21:35.243Z,7.75
2023-04-21T20:24:02.452Z,7.50
2023-04-21T20:29:17.934Z,6.78
2023-04-21T20:31:45.763Z,6.90
2023-04-21T20:34:12.849Z,7.10
2023-04-21T20:36:40.578Z,6.43
2023-04-21T20:39:07.429Z,5.90
2023-04-21T20:41:38.043Z,6.45
2023-04-21T20:44:07.285Z,5.75
2023-04-21T20:46:34.295Z,5.53
2023-04-21T20:49:08.425Z,5.70
2023-04-21T20:51:41.653Z,5.20
2023-04-21T20:54:08.740Z,5.43
2023-04-21T20:56:38.809Z,5.40
2023-04-21T20:59:05.927Z,5.57
2023-04-21T21:01:36.930Z,5.88
2023-04-21T21:04:04.146Z,7.40
2023-04-21T21:06:31.117Z,7.03
2023-04-21T21:08:57.934Z,6.95
2023-04-21T21:11:24.750Z,7.10
2023-04-21T21:13:51.703Z,6.10
2023-04-21T21:16:18.406Z,6.03
2023-04-21T21:18:45.127Z,5.60
2023-04-21T21:21:11.757Z,5.65
2023-04-21T21:23:38.545Z,6.00
2023-04-21T21:26:09.092Z,5.88
2023-04-21T21:28:38.655Z,5.28
2023-04-21T21:31:11.088Z,4.85
2023-04-21T21:33:37.919Z,5.63
2023-04-21T21:36:05.029Z,6.93
2023-04-21T21:38:32.195Z,5.07
2023-04-21T21:40:58.806Z,5.78
2023-04-21T21:43:25.562Z,5.72
2023-04-21T21:45:57.633Z,6.45
2023-04-21T21:48:24.392Z,4.97
2023-04-21T21:50:51.122Z,6.07
2023-04-21T21:53:17.783Z,6.40
2023-04-21T21:55:44.648Z,6.28
2023-04-21T21:58:13.684Z,4.88
2023-04-21T22:00:40.421Z,5.07
2023-04-21T22:03:07.409Z,5.18
2023-04-21T22:05:34.497Z,5.53
2023-04-21T22:08:01.148Z,5.90
2023-04-21T22:10:27.863Z,6.00
2023-04-21T22:12:54.562Z,5.97
2023-04-21T22:15:21.248Z,5.35
2023-04-21T22:17:47.988Z,5.45
2023-04-21T22:20:15.335Z,5.80
2023-04-21T22:22:43.189Z,5.63
2023-04-21T22:25:11.000Z,5.93
2023-04-21T22:27:37.772Z,6.22
2023-04-21T22:30:04.840Z,5.70
2023-04-21T22:32:32.412Z,4.97
2023-04-21T22:34:59.765Z,5.45
2023-04-21T22:37:26.456Z,6.65
2023-04-21T22:39:54.349Z,5.85
2023-04-21T22:42:21.166Z,6.55
2023-04-21T22:44:47.786Z,7.28
2023-04-21T22:47:14.464Z,6.95
2023-04-21T22:49:41.323Z,6.32
2023-04-21T22:52:08.076Z,6.55
2023-04-21T22:54:34.734Z,6.70
2023-04-21T22:57:02.312Z,5.50
2023-04-21T22:59:29.051Z,6.97
2023-04-21T23:01:55.777Z,6.80
2023-04-21T23:04:22.628Z,6.28
2023-04-21T23:06:49.323Z,6.78
2023-04-21T23:09:16.323Z,5.88
2023-04-21T23:11:43.065Z,6.75
2023-04-21T23:14:09.815Z,6.28
2023-04-21T23:16:36.630Z,7.43
2023-04-21T23:19:03.297Z,7.88
2023-04-21T23:21:30.032Z,7.68
2023-04-21T23:23:56.661Z,7.10
2023-04-21T23:26:23.300Z,8.02
2023-04-21T23:28:49.940Z,7.93
2023-04-21T23:31:16.694Z,7.20
2023-04-21T23:33:43.355Z,7.40
2023-04-21T23:36:10.132Z,7.50
2023-04-21T23:38:36.794Z,7.70
2023-04-21T23:41:03.484Z,7.30
2023-04-21T23:43:30.826Z,7.25
2023-04-21T23:45:57.460Z,7.80
2023-04-21T23:48:24.276Z,7.20
2023-04-21T23:50:51.071Z,8.25
2023-04-21T23:53:17.717Z,7.18
2023-04-21T23:55:46.108Z,6.88
2023-04-21T23:58:13.123Z,7.60
